Time;durP1;ratioP1;P1;durP2;ratioP2;P2;SDS_P1;SDS_P2;PMS_P1;PMS_P2;Temp;Humidity;BMP_temperature;BMP_pressure;BME280_temperature;BME280_humidity;BME280_pressure;Samples;Min_cycle;Max_cycle;Signal;HPM_P1;HPM_P2
2021/06/17 00:01:07;;;;;;;4.37;3.92;;;;;;;24.81;50.95;99799.02;1759608;79;21040;-70
2021/06/17 00:03:34;;;;;;;6.37;4.50;;;;;;;24.78;50.93;99802.23;1757161;79;21771;-70
2021/06/17 00:06:01;;;;;;;5.40;4.62;;;;;;;24.76;50.83;99804.94;1766004;79;21014;-70
2021/06/17 00:08:27;;;;;;;4.45;4.00;;;;;;;24.72;50.85;99800.56;1771620;79;21201;-69
2021/06/17 00:10:55;;;;;;;4.70;4.22;;;;;;;24.71;50.79;99807.09;1758892;79;21021;-68
2021/06/17 00:13:26;;;;;;;5.15;4.30;;;;;;;24.69;50.78;99805.18;1756754;79;21525;-70
2021/06/17 00:15:58;;;;;;;5.17;4.23;;;;;;;24.65;50.89;99812.21;1769473;79;21065;-67
2021/06/17 00:18:25;;;;;;;5.53;4.28;;;;;;;24.64;50.93;99809.20;1772851;79;20974;-68
2021/06/17 00:20:51;;;;;;;5.37;3.67;;;;;;;24.62;50.99;99811.36;1772624;79;21129;-67
2021/06/17 00:23:18;;;;;;;5.65;3.92;;;;;;;24.61;50.91;99815.14;1769145;79;21691;-69
2021/06/17 00:25:44;;;;;;;4.62;4.10;;;;;;;24.60;50.87;99816.23;1778684;79;20998;-68
2021/06/17 00:28:11;;;;;;;7.42;3.87;;;;;;;24.59;50.89;99818.14;1770002;79;21069;-69
2021/06/17 00:30:39;;;;;;;4.97;3.90;;;;;;;24.59;51.00;99811.86;1740968;79;21576;-69
2021/06/17 00:33:06;;;;;;;6.60;4.15;;;;;;;24.58;50.89;99807.53;1743409;80;21017;-68
2021/06/17 00:35:32;;;;;;;4.72;3.67;;;;;;;24.57;50.93;99810.79;1735738;79;21494;-69
2021/06/17 00:38:00;;;;;;;7.45;4.75;;;;;;;24.58;50.87;99806.17;1751951;79;21064;-68
2021/06/17 00:40:28;;;;;;;5.90;4.12;;;;;;;24.57;50.88;99808.59;1746625;79;21537;-68
2021/06/17 00:42:54;;;;;;;9.45;4.75;;;;;;;24.56;50.89;99805.61;1738034;79;20995;-68
2021/06/17 00:45:34;;;;;;;7.10;4.10;;;;;;;24.54;50.84;99801.80;1752317;79;21097;-69
2021/06/17 00:48:02;;;;;;;5.85;4.15;;;;;;;24.52;50.84;99805.30;1739628;81;21062;-69
2021/06/17 00:50:32;;;;;;;6.55;4.17;;;;;;;24.50;50.89;99812.86;1774551;79;21037;-68
2021/06/17 00:52:59;;;;;;;6.80;4.17;;;;;;;24.48;50.96;99825.33;1777277;79;21011;-70
2021/06/17 00:55:26;;;;;;;5.70;3.95;;;;;;;24.46;51.02;99828.84;1773920;79;21073;-65
2021/06/17 00:57:52;;;;;;;6.58;4.20;;;;;;;24.45;51.04;99827.20;1782588;79;21524;-65
2021/06/17 01:00:19;;;;;;;5.40;4.05;;;;;;;24.43;51.07;99826.63;1780697;79;21060;-67
2021/06/17 01:02:46;;;;;;;4.85;4.40;;;;;;;24.42;51.01;99834.52;1740003;80;21101;-63
2021/06/17 01:05:18;;;;;;;6.45;4.58;;;;;;;24.41;50.96;99830.14;1742517;81;21528;-63
2021/06/17 01:08:17;;;;;;;7.65;4.17;;;;;;;24.39;50.99;99828.23;1739086;80;21092;-65
2021/06/17 01:11:07;;;;;;;4.40;3.95;;;;;;;24.37;51.08;99822.23;1740105;81;21145;-66
2021/06/17 01:13:58;;;;;;;6.42;4.33;;;;;;;24.31;51.10;99825.44;1753330;80;21045;-65
2021/06/17 01:16:47;;;;;;;6.28;3.90;;;;;;;24.29;51.06;99826.78;1748605;80;21049;-64
2021/06/17 01:19:36;;;;;;;6.65;4.50;;;;;;;24.26;51.13;99828.64;1757223;80;21013;-65
2021/06/17 01:22:31;;;;;;;6.45;4.90;;;;;;;24.23;51.29;99826.46;1751598;81;21045;-65
2021/06/17 01:25:06;;;;;;;4.83;4.33;;;;;;;24.20;51.24;99831.84;1737931;80;21103;-64
2021/06/17 01:28:11;;;;;;;4.70;4.25;;;;;;;24.17;51.35;99833.73;1747839;80;21053;-64
2021/06/17 01:31:00;;;;;;;6.00;4.60;;;;;;;24.17;51.29;99836.98;1749527;80;21041;-66
2021/06/17 01:33:32;;;;;;;6.05;3.95;;;;;;;24.14;51.28;99828.80;1735976;81;21517;-64
2021/06/17 01:36:02;;;;;;;6.15;3.98;;;;;;;24.10;51.30;99827.13;1718559;81;21489;-64
2021/06/17 01:38:29;;;;;;;6.17;4.33;;;;;;;24.08;51.40;99825.21;1743887;81;22270;-65
2021/06/17 01:40:56;;;;;;;5.62;4.10;;;;;;;24.07;51.53;99830.38;1735428;80;21092;-65
2021/06/17 01:43:22;;;;;;;4.53;4.10;;;;;;;24.07;51.55;99833.63;1740512;80;21056;-63
2021/06/17 01:45:50;;;;;;;8.13;4.25;;;;;;;24.05;51.69;99837.11;1734611;80;21572;-64
2021/06/17 01:48:16;;;;;;;6.28;4.25;;;;;;;24.03;51.65;99851.47;1732712;80;21057;-65
2021/06/17 01:50:47;;;;;;;6.55;4.30;;;;;;;24.02;51.63;99847.94;1738580;80;21172;-65
2021/06/17 01:53:17;;;;;;;4.42;4.03;;;;;;;24.03;51.65;99848.23;1734368;80;21053;-65
2021/06/17 01:55:45;;;;;;;5.83;4.30;;;;;;;24.02;51.66;99839.80;1751496;80;21072;-64
2021/06/17 01:58:14;;;;;;;5.70;3.92;;;;;;;24.01;51.64;99833.27;1756067;80;21514;-64
2021/06/17 02:00:44;;;;;;;7.62;4.47;;;;;;;23.99;51.70;99841.69;1740765;80;21529;-64
2021/06/17 02:03:11;;;;;;;6.55;4.30;;;;;;;23.97;51.75;99861.47;1743542;80;21138;-64
2021/06/17 02:05:38;;;;;;;4.60;4.20;;;;;;;23.95;51.93;99869.02;1743856;80;21076;-65
2021/06/17 02:08:10;;;;;;;4.67;4.03;;;;;;;23.94;51.94;99865.49;1739990;80;21009;-64
2021/06/17 02:10:38;;;;;;;6.08;4.17;;;;;;;23.92;52.05;99859.50;1744196;81;21140;-63
2021/06/17 02:13:05;;;;;;;6.87;4.50;;;;;;;23.91;52.13;99868.73;1717997;81;21073;-63
2021/06/17 02:15:33;;;;;;;6.70;4.78;;;;;;;23.89;52.26;99868.16;1747597;81;21162;-64
2021/06/17 02:18:00;;;;;;;6.42;4.58;;;;;;;23.88;52.27;99875.19;1732553;80;21037;-64
2021/06/17 02:20:26;;;;;;;8.75;4.10;;;;;;;23.87;52.36;99879.77;1738573;81;21073;-64
2021/06/17 02:22:55;;;;;;;8.73;4.80;;;;;;;23.86;52.43;99870.56;1741814;81;21002;-64
2021/06/17 02:25:22;;;;;;;6.58;4.05;;;;;;;23.86;52.44;99875.98;1738414;80;21584;-65
2021/06/17 02:27:53;;;;;;;6.85;4.28;;;;;;;23.87;52.50;99891.17;1738814;80;22341;-64
2021/06/17 02:30:20;;;;;;;5.78;3.95;;;;;;;23.85;52.59;99888.70;1736777;80;21089;-65
2021/06/17 02:32:49;;;;;;;8.38;4.10;;;;;;;23.85;52.71;99891.96;1716406;81;21096;-64
2021/06/17 02:35:20;;;;;;;7.12;4.47;;;;;;;23.83;52.70;99892.20;1741572;81;21029;-64
2021/06/17 02:37:55;;;;;;;7.03;4.80;;;;;;;23.82;52.76;99885.70;1741167;80;21001;-64
2021/06/17 02:40:23;;;;;;;4.42;4.03;;;;;;;23.82;52.81;99878.92;1737165;80;21152;-64
2021/06/17 02:42:50;;;;;;;4.83;4.05;;;;;;;23.81;52.95;99886.22;1718256;81;21607;-65
2021/06/17 02:45:16;;;;;;;5.83;4.62;;;;;;;23.81;52.98;99886.22;1745798;80;21101;-64
2021/06/17 02:47:43;;;;;;;5.08;3.80;;;;;;;23.81;52.99;99886.22;1733764;80;21017;-64
2021/06/17 02:50:11;;;;;;;7.12;3.67;;;;;;;23.81;53.00;99884.86;1723554;81;21090;-64
2021/06/17 02:52:41;;;;;;;5.53;4.35;;;;;;;23.81;53.04;99882.14;1738405;81;21129;-63
2021/06/17 02:55:08;;;;;;;14.38;12.75;;;;;;;23.80;53.24;99885.95;1747620;81;21109;-63
2021/06/17 02:57:46;;;;;;;12.15;10.15;;;;;;;23.80;53.36;99885.95;1737780;81;21010;-64
2021/06/17 03:00:17;;;;;;;12.40;10.23;;;;;;;23.79;53.32;99879.41;1734328;81;21113;-64
2021/06/17 03:03:09;;;;;;;8.55;7.58;;;;;;;23.79;53.47;99879.41;1747106;81;21056;-65
2021/06/17 03:05:52;;;;;;;7.92;5.90;;;;;;;23.78;53.58;99892.64;1743819;81;21782;-65
2021/06/17 03:08:23;;;;;;;6.35;4.92;;;;;;;23.75;53.78;99883.94;1730570;81;21042;-65
2021/06/17 03:10:52;;;;;;;5.92;4.40;;;;;;;23.73;53.85;99880.66;1733114;81;21106;-64
2021/06/17 03:13:20;;;;;;;11.43;9.95;;;;;;;23.72;53.82;99874.97;1733344;81;21058;-65
2021/06/17 03:15:48;;;;;;;9.90;6.97;;;;;;;23.73;53.97;99881.20;1713581;82;21033;-65
2021/06/17 03:18:14;;;;;;;6.42;5.33;;;;;;;23.72;54.18;99883.11;1742596;81;21121;-65
2021/06/17 03:20:42;;;;;;;5.97;5.35;;;;;;;23.72;54.23;99896.67;1689408;82;21030;-64
2021/06/17 03:23:14;;;;;;;6.67;4.35;;;;;;;23.69;54.31;99897.16;1749987;82;21053;-64
2021/06/17 03:25:44;;;;;;;7.65;3.92;;;;;;;23.69;54.38;99895.80;1738265;81;21066;-63
2021/06/17 03:28:12;;;;;;;8.33;4.78;;;;;;;23.71;54.42;99908.57;1720925;81;21101;-64
2021/06/17 03:30:43;;;;;;;5.60;4.37;;;;;;;23.72;54.50;99902.09;1713015;82;21069;-65
2021/06/17 03:33:09;;;;;;;7.60;4.65;;;;;;;23.72;54.75;99905.31;1704636;83;21080;-64
2021/06/17 03:35:36;;;;;;;7.35;4.40;;;;;;;23.71;54.66;99909.92;1743151;81;21097;-64
2021/06/17 03:38:03;;;;;;;6.60;3.72;;;;;;;23.73;54.71;99909.69;1733753;81;21513;-64
2021/06/17 03:40:29;;;;;;;5.58;3.95;;;;;;;23.73;54.78;99905.07;1741238;81;21034;-65
2021/06/17 03:42:56;;;;;;;6.97;4.33;;;;;;;23.75;54.90;99907.00;1700491;82;21161;-64
2021/06/17 03:45:24;;;;;;;5.17;4.20;;;;;;;23.75;54.89;99906.18;1726621;81;21093;-65
2021/06/17 03:47:51;;;;;;;6.55;4.03;;;;;;;23.75;55.01;99911.06;1746206;81;21013;-65
2021/06/17 03:50:19;;;;;;;4.72;3.80;;;;;;;23.75;55.07;99921.91;1740501;80;21036;-65
2021/06/17 03:52:48;;;;;;;4.65;3.85;;;;;;;23.77;55.01;99924.37;1749333;79;21025;-64
2021/06/17 03:55:17;;;;;;;4.20;3.72;;;;;;;23.78;55.19;99930.62;1756258;79;21123;-65
2021/06/17 03:57:45;;;;;;;6.95;3.83;;;;;;;23.80;55.30;99929.86;1742175;79;21142;-66
2021/06/17 04:00:13;;;;;;;4.78;3.70;;;;;;;23.81;55.28;99927.45;1745897;79;21052;-64
2021/06/17 04:02:40;;;;;;;5.90;3.80;;;;;;;23.82;55.46;99933.17;1758092;79;21053;-66
2021/06/17 04:05:08;;;;;;;6.12;4.40;;;;;;;23.83;55.55;99936.97;1744901;79;21056;-64
2021/06/17 04:07:36;;;;;;;4.95;3.85;;;;;;;23.84;55.71;99940.52;1769326;79;21115;-65
2021/06/17 04:10:04;;;;;;;6.30;4.22;;;;;;;23.85;55.67;99949.73;1752225;80;21493;-66
2021/06/17 04:12:31;;;;;;;4.83;4.10;;;;;;;23.86;55.69;99944.61;1755801;79;21034;-64
2021/06/17 04:14:59;;;;;;;6.28;4.28;;;;;;;23.90;55.67;99942.22;1759294;79;21045;-64
2021/06/17 04:17:29;;;;;;;8.45;4.22;;;;;;;23.93;55.74;99943.06;1754909;79;21041;-65
2021/06/17 04:19:55;;;;;;;6.97;4.35;;;;;;;23.93;55.91;99938.48;1757734;79;21110;-65
2021/06/17 04:22:23;;;;;;;7.05;4.28;;;;;;;23.94;55.95;99936.58;1760803;81;21584;-64
2021/06/17 04:25:01;;;;;;;5.33;4.28;;;;;;;23.95;56.08;99939.56;1745581;79;21060;-64
2021/06/17 04:27:28;;;;;;;4.83;3.80;;;;;;;23.99;56.26;99941.23;1735747;79;21064;-63
2021/06/17 04:29:54;;;;;;;4.90;4.40;;;;;;;24.01;56.36;99939.94;1737399;79;21600;-64
2021/06/17 04:32:21;;;;;;;8.20;4.30;;;;;;;24.02;56.47;99934.77;1750376;79;21783;-65
2021/06/17 04:34:50;;;;;;;7.85;4.67;;;;;;;24.06;56.36;99942.69;1737471;79;21080;-65
2021/06/17 04:37:23;;;;;;;7.92;4.33;;;;;;;24.09;56.43;99929.98;1752346;79;21036;-64
2021/06/17 04:39:50;;;;;;;8.30;4.70;;;;;;;24.14;56.34;99934.13;1739328;79;21013;-65
2021/06/17 04:42:17;;;;;;;5.97;4.12;;;;;;;24.20;56.31;99932.27;1740320;79;21065;-64
2021/06/17 04:44:44;;;;;;;4.80;4.20;;;;;;;24.24;56.41;99929.88;1753621;79;21144;-64
2021/06/17 04:47:12;;;;;;;7.75;4.75;;;;;;;24.26;56.33;99928.56;1750072;79;21493;-63
2021/06/17 04:49:38;;;;;;;6.65;4.10;;;;;;;24.29;56.25;99940.80;1749931;81;21029;-65
2021/06/17 04:52:11;;;;;;;4.67;3.95;;;;;;;24.30;56.28;99942.45;1746756;81;21052;-64
2021/06/17 04:54:38;;;;;;;8.00;4.10;;;;;;;24.34;56.39;99949.01;1750178;80;21149;-65
2021/06/17 04:57:05;;;;;;;7.00;3.98;;;;;;;24.38;56.52;99950.14;1748040;81;21138;-66
2021/06/17 04:59:32;;;;;;;5.22;4.03;;;;;;;24.40;56.45;99949.89;1742748;80;21117;-65
2021/06/17 05:02:00;;;;;;;4.83;4.15;;;;;;;24.43;56.50;99955.61;1742314;81;21061;-64
2021/06/17 05:04:26;;;;;;;4.37;3.90;;;;;;;24.46;56.44;99959.18;1745759;80;21089;-64
2021/06/17 05:12:17;;;;;;;5.33;4.40;;;;;;;24.59;56.28;99972.09;1741846;80;21052;-66
2021/06/17 05:14:43;;;;;;;7.62;4.45;;;;;;;24.59;56.35;99975.66;1745731;80;21021;-65
2021/06/17 05:17:10;;;;;;;6.15;4.47;;;;;;;24.61;56.40;99978.94;1741281;80;21599;-66
2021/06/17 05:19:36;;;;;;;11.60;5.17;;;;;;;24.65;56.31;99983.33;1741411;80;21042;-65
2021/06/17 05:22:06;;;;;;;5.33;4.15;;;;;;;24.68;56.22;99986.87;1738737;80;21153;-65
2021/06/17 05:24:32;;;;;;;8.08;4.60;;;;;;;24.70;56.02;99981.45;1733289;81;21040;-67
2021/06/17 05:26:59;;;;;;;4.80;4.20;;;;;;;24.75;55.99;99985.33;1747624;81;21026;-66
2021/06/17 05:29:26;;;;;;;10.28;4.90;;;;;;;24.75;56.19;99987.50;1735777;81;21092;-65
2021/06/17 05:31:52;;;;;;;4.87;4.37;;;;;;;24.75;56.30;99995.64;1724564;81;21038;-66
2021/06/17 05:34:19;;;;;;;5.03;4.55;;;;;;;24.77;56.47;99999.47;1733091;81;21112;-65
2021/06/17 05:36:46;;;;;;;4.78;4.33;;;;;;;24.79;56.20;99999.48;1740442;81;21037;-66
2021/06/17 05:39:12;;;;;;;5.72;4.50;;;;;;;24.80;56.27;100002.50;1736111;81;21502;-65
2021/06/17 05:41:39;;;;;;;9.08;4.78;;;;;;;24.82;56.46;100003.58;1734990;81;21017;-65
2021/06/17 05:44:05;;;;;;;5.47;4.28;;;;;;;24.85;56.43;100000.36;1735937;81;21058;-64
2021/06/17 05:46:39;;;;;;;7.35;4.55;;;;;;;24.90;56.37;99999.06;1789669;79;21141;-65
2021/06/17 05:49:03;;;;;;;5.58;4.75;;;;;;;24.92;56.43;99990.93;1766076;79;21470;-65
2021/06/17 05:51:30;;;;;;;9.13;6.53;;;;;;;24.95;56.35;99996.38;1776059;79;21002;-64
2021/06/17 05:53:56;;;;;;;7.85;6.20;;;;;;;24.98;56.36;99997.23;1779281;79;21029;-64
2021/06/17 05:56:23;;;;;;;10.25;5.35;;;;;;;25.04;56.50;100000.83;1775976;79;21024;-64
2021/06/17 05:58:49;;;;;;;6.92;3.98;;;;;;;25.08;56.44;100006.02;1762803;79;21076;-65
2021/06/17 06:01:16;;;;;;;5.40;4.67;;;;;;;25.11;56.48;100010.92;1769415;79;20997;-65
2021/06/17 06:03:42;;;;;;;7.08;4.65;;;;;;;25.15;56.23;100015.31;1764146;79;21075;-65
2021/06/17 06:06:09;;;;;;;6.47;4.70;;;;;;;25.17;56.32;100011.28;1783119;79;21564;-64
2021/06/17 06:08:35;;;;;;;4.85;4.20;;;;;;;25.19;56.14;100013.20;1774255;79;21545;-65
2021/06/17 06:11:02;;;;;;;7.37;4.55;;;;;;;25.23;56.33;100009.45;1751119;79;21161;-65
2021/06/17 06:13:30;;;;;;;9.55;4.40;;;;;;;25.26;56.00;100006.20;1746931;79;21041;-65
2021/06/17 06:15:56;;;;;;;6.00;4.65;;;;;;;25.27;55.89;100007.31;1761869;80;21018;-65
2021/06/17 06:18:26;;;;;;;8.43;5.15;;;;;;;25.29;55.85;100008.42;1735923;79;21017;-65
2021/06/17 06:20:59;;;;;;;5.67;4.85;;;;;;;25.30;55.89;100009.52;1734868;80;21029;-65
2021/06/17 06:23:26;;;;;;;11.60;5.15;;;;;;;25.34;55.97;100008.44;1738037;80;21766;-66
2021/06/17 06:25:53;;;;;;;9.28;5.28;;;;;;;25.38;56.23;100011.47;1735234;80;21100;-64
2021/06/17 06:28:19;;;;;;;8.13;4.95;;;;;;;25.39;55.91;100014.48;1745467;79;21077;-64
2021/06/17 06:30:48;;;;;;;7.60;5.03;;;;;;;25.41;55.89;100014.48;1751161;79;21049;-65
2021/06/17 06:33:15;;;;;;;7.97;4.60;;;;;;;25.44;55.73;100020.78;1746782;79;21057;-65
2021/06/17 06:35:42;;;;;;;7.45;4.70;;;;;;;25.45;55.80;100014.24;1750242;80;21879;-65
2021/06/17 06:38:08;;;;;;;7.70;4.20;;;;;;;25.49;55.91;100015.91;1739432;80;21045;-64
2021/06/17 06:40:35;;;;;;;11.53;4.92;;;;;;;25.55;56.21;100017.58;1748863;80;21077;-65
2021/06/17 06:43:02;;;;;;;6.35;4.85;;;;;;;25.61;56.38;100017.92;1731861;80;21497;-65
2021/06/17 06:45:30;;;;;;;6.37;4.60;;;;;;;25.65;56.68;100017.67;1743491;79;21100;-66
2021/06/17 06:47:57;;;;;;;6.10;5.05;;;;;;;25.72;56.59;100018.80;1755593;79;21106;-64
2021/06/17 06:50:23;;;;;;;7.00;5.58;;;;;;;25.77;56.56;100020.72;1756556;79;21993;-66
2021/06/17 06:52:50;;;;;;;5.03;4.60;;;;;;;25.83;56.53;100022.42;1754844;80;21096;-66
2021/06/17 06:55:16;;;;;;;10.95;4.62;;;;;;;25.88;56.39;100018.34;1753419;80;21070;-64
2021/06/17 06:57:43;;;;;;;9.25;4.67;;;;;;;25.92;56.40;100015.41;1744581;80;21588;-62
2021/06/17 07:00:12;;;;;;;6.92;4.67;;;;;;;25.97;56.37;100012.72;1748995;79;22962;-71
2021/06/17 07:02:39;;;;;;;6.03;4.30;;;;;;;26.00;56.46;100020.37;1747817;80;21089;-71
2021/06/17 07:05:06;;;;;;;8.50;4.47;;;;;;;26.06;56.79;100028.03;1752624;79;21081;-72
2021/06/17 07:07:33;;;;;;;7.42;4.72;;;;;;;26.10;56.62;100019.61;1755602;79;21130;-72
2021/06/17 07:09:59;;;;;;;6.15;4.72;;;;;;;26.15;56.47;100018.80;1743172;80;21104;-73
2021/06/17 07:12:27;;;;;;;8.03;5.72;;;;;;;26.20;56.35;100022.92;1755328;79;21494;-77
2021/06/17 07:14:54;;;;;;;6.08;5.05;;;;;;;26.24;56.07;100018.58;1745044;79;21492;-73
2021/06/17 07:17:21;;;;;;;6.15;4.35;;;;;;;26.28;55.77;100030.03;1760010;79;21033;-74
2021/06/17 07:19:47;;;;;;;8.30;5.15;;;;;;;26.32;55.42;100017.25;1752840;79;21092;-72
2021/06/17 07:22:14;;;;;;;7.67;4.58;;;;;;;26.36;55.20;100020.53;1757778;79;21103;-75
2021/06/17 07:24:40;;;;;;;7.28;4.92;;;;;;;26.40;55.13;100023.55;1755534;79;21113;-73
2021/06/17 07:27:07;;;;;;;8.85;4.87;;;;;;;26.42;55.24;100030.36;1755898;79;21056;-71
2021/06/17 07:29:34;;;;;;;6.60;5.58;;;;;;;26.47;54.92;100032.30;1765024;79;21100;-73
2021/06/17 07:32:02;;;;;;;5.35;4.47;;;;;;;26.50;54.65;100029.02;1768679;79;21049;-68
2021/06/17 07:34:28;;;;;;;7.00;4.67;;;;;;;26.52;54.62;100028.25;1747740;79;21017;-68
2021/06/17 07:36:55;;;;;;;12.65;8.55;;;;;;;26.55;54.70;100037.23;1796845;78;21104;-73
2021/06/17 07:39:21;;;;;;;9.85;7.08;;;;;;;26.58;54.53;100031.25;1789369;78;21083;-68
2021/06/17 07:41:48;;;;;;;11.03;6.72;;;;;;;26.62;54.50;100032.94;1752928;80;21034;-70
2021/06/17 07:44:15;;;;;;;11.05;6.58;;;;;;;26.64;54.39;100032.12;1769667;78;21052;-71
2021/06/17 07:46:41;;;;;;;9.18;5.35;;;;;;;26.67;54.34;100032.38;1788543;78;21009;-75
2021/06/17 07:49:08;;;;;;;7.53;5.67;;;;;;;26.70;54.25;100029.69;1776289;79;21147;-65
2021/06/17 07:51:36;;;;;;;8.65;5.58;;;;;;;26.72;54.23;100020.70;1762879;80;21053;-67
2021/06/17 07:54:03;;;;;;;6.92;5.17;;;;;;;26.76;54.27;100031.33;1757051;80;21017;-74
2021/06/17 07:56:30;;;;;;;6.70;4.85;;;;;;;26.80;54.04;100037.88;1751075;80;21069;-71
2021/06/17 07:58:57;;;;;;;6.58;4.83;;;;;;;26.85;54.09;100034.37;1766865;78;21085;-73
2021/06/17 08:01:24;;;;;;;6.65;4.72;;;;;;;26.90;54.02;100032.19;1769947;78;21187;-73
2021/06/17 08:03:52;;;;;;;6.28;4.78;;;;;;;26.95;53.87;100045.28;1778212;78;20987;-74
2021/06/17 08:06:19;;;;;;;6.58;5.05;;;;;;;26.98;53.93;100036.55;1772271;78;21048;-73
2021/06/17 08:08:47;;;;;;;5.65;5.00;;;;;;;27.04;53.92;100046.92;1760321;80;21052;-75
2021/06/17 08:11:14;;;;;;;5.53;4.80;;;;;;;27.09;53.79;100047.49;1768534;79;21021;-76
2021/06/17 08:13:40;;;;;;;5.97;5.25;;;;;;;27.12;53.63;100043.68;1791770;78;22049;-77
2021/06/17 08:16:06;;;;;;;7.17;4.80;;;;;;;27.16;53.54;100042.56;1779390;78;21025;-78
2021/06/17 08:18:33;;;;;;;5.40;4.90;;;;;;;27.21;53.48;100048.04;1782360;79;21005;-76
2021/06/17 08:21:02;;;;;;;9.13;4.42;;;;;;;27.24;53.34;100046.98;1767280;78;21037;-67
2021/06/17 08:23:28;;;;;;;6.25;4.33;;;;;;;27.29;53.10;100036.61;1761884;78;21132;-66
2021/06/17 08:25:54;;;;;;;7.45;4.17;;;;;;;27.34;52.61;100049.45;1770972;78;21145;-68
2021/06/17 08:28:26;;;;;;;6.97;4.92;;;;;;;27.36;52.59;100050.00;1775217;78;21619;-65
2021/06/17 08:30:49;;;;;;;7.35;4.15;;;;;;;27.40;52.76;100054.63;1779955;78;21052;-69
2021/06/17 08:33:16;;;;;;;9.90;4.62;;;;;;;27.44;52.61;100042.62;1775213;78;21053;-69
2021/06/17 08:35:42;;;;;;;6.03;4.75;;;;;;;27.48;52.36;100045.08;1772788;78;21609;-69
2021/06/17 08:38:09;;;;;;;4.92;4.45;;;;;;;27.51;52.62;100045.91;1762987;79;22766;-68
2021/06/17 08:40:36;;;;;;;7.08;4.80;;;;;;;27.56;52.21;100045.08;1771220;78;20985;-69
2021/06/17 08:43:03;;;;;;;6.42;5.00;;;;;;;27.59;52.76;100043.99;1785369;78;21487;-69
2021/06/17 08:45:30;;;;;;;10.00;4.75;;;;;;;27.64;53.30;100045.36;1770930;78;21100;-69
2021/06/17 08:47:56;;;;;;;6.12;4.75;;;;;;;27.69;53.65;100050.54;1742478;80;21045;-70
2021/06/17 08:50:23;;;;;;;10.53;5.17;;;;;;;27.72;53.40;100048.61;1778111;78;21186;-69
2021/06/17 08:52:49;;;;;;;7.42;4.40;;;;;;;27.75;53.06;100046.70;1752866;79;21612;-68
2021/06/17 08:55:23;;;;;;;11.30;4.87;;;;;;;27.77;52.58;100052.70;1753584;79;21077;-69
2021/06/17 08:57:51;;;;;;;9.78;4.70;;;;;;;27.76;53.22;100040.17;1785490;78;21082;-70
2021/06/17 09:00:28;;;;;;;7.25;4.62;;;;;;;27.84;53.52;100047.80;1778547;78;21088;-67
2021/06/17 09:05:37;;;;;;;6.87;4.30;;;;;;;27.92;53.17;100049.17;1799682;78;22520;-67
2021/06/17 09:08:05;;;;;;;6.25;4.97;;;;;;;27.85;53.00;100049.41;1782920;80;21069;-70
2021/06/17 09:10:32;;;;;;;9.10;5.60;;;;;;;27.88;52.70;100053.00;1790259;79;21355;-71
2021/06/17 09:13:01;;;;;;;9.85;5.25;;;;;;;27.90;52.44;100052.17;1775377;79;21753;-73
2021/06/17 09:15:38;;;;;;;6.00;4.72;;;;;;;27.93;52.94;100055.73;1787672;80;20935;-71
2021/06/17 09:18:16;;;;;;;8.40;4.80;;;;;;;27.94;52.86;100055.98;1783039;79;21084;-71
2021/06/17 09:20:55;;;;;;;8.88;5.25;;;;;;;27.96;52.85;100063.35;1764335;80;20981;-71
2021/06/17 09:23:38;;;;;;;7.08;4.72;;;;;;;27.98;52.87;100049.43;1779578;80;21112;-70
2021/06/17 09:26:09;;;;;;;7.42;4.95;;;;;;;27.98;52.75;100052.16;1759299;80;20964;-69
2021/06/17 09:29:04;;;;;;;6.10;4.40;;;;;;;28.00;52.27;100058.16;1779170;79;21024;-69
2021/06/17 09:31:37;;;;;;;7.47;4.85;;;;;;;27.98;51.79;100053.53;1780034;79;21021;-67
2021/06/17 09:34:08;;;;;;;;;;;;;;;27.96;51.53;100060.63;1774727;80;21084;-69
2021/06/17 09:36:35;;;;;;;5.12;4.62;;;;;;;27.95;51.54;100057.63;1771284;79;21978;-68
2021/06/17 09:39:09;;;;;;;5.87;4.22;;;;;;;27.90;51.29;100059.55;1770229;79;21117;-65
2021/06/17 09:41:50;;;;;;;8.43;4.33;;;;;;;27.92;51.22;100060.09;1765654;80;21056;-68
2021/06/17 09:44:38;;;;;;;4.03;3.72;;;;;;;27.94;51.19;100068.27;1764864;80;21221;-67
2021/06/17 09:47:14;;;;;;;7.65;4.15;;;;;;;27.96;51.19;100065.27;1773202;80;21766;-67
2021/06/17 09:49:41;;;;;;;6.65;4.15;;;;;;;28.00;51.00;100065.80;1773604;80;21154;-65
2021/06/17 09:52:09;;;;;;;6.97;4.20;;;;;;;28.02;50.38;100058.70;1779449;79;21032;-69
2021/06/17 09:54:39;;;;;;;5.20;3.87;;;;;;;28.03;50.32;100057.06;1781341;80;21151;-68
2021/06/17 09:57:21;;;;;;;4.65;4.15;;;;;;;28.06;50.07;100058.41;1775251;80;21018;-70
2021/06/17 09:59:50;;;;;;;5.53;4.40;;;;;;;28.10;50.61;100051.86;1774534;80;21111;-68
2021/06/17 10:02:29;;;;;;;5.25;4.12;;;;;;;28.11;49.90;100064.43;1780028;80;21114;-66
2021/06/17 10:05:14;;;;;;;6.72;4.47;;;;;;;28.14;50.31;100058.39;1768159;80;21072;-66
2021/06/17 10:07:41;;;;;;;4.40;4.03;;;;;;;28.19;50.55;100046.91;1757749;80;21577;-67
2021/06/17 10:10:08;;;;;;;7.35;4.17;;;;;;;28.23;50.11;100044.45;1766090;79;21042;-64
2021/06/17 10:12:36;;;;;;;6.62;4.22;;;;;;;28.26;50.21;100050.73;1765476;80;21096;-66
2021/06/17 10:15:04;;;;;;;7.37;4.17;;;;;;;28.29;50.26;100051.52;1764827;80;21935;-68
2021/06/17 10:17:31;;;;;;;4.40;4.00;;;;;;;28.33;49.85;100048.50;1762645;80;21030;-66
2021/06/17 10:19:57;;;;;;;6.67;3.87;;;;;;;28.35;49.87;100042.20;1760795;80;21102;-65
2021/06/17 10:22:29;;;;;;;7.35;4.10;;;;;;;28.38;49.84;100051.22;1771383;80;21497;-66
2021/06/17 10:24:56;;;;;;;4.90;4.50;;;;;;;28.42;49.67;100041.37;1762998;80;21080;-71
2021/06/17 10:27:35;;;;;;;4.80;4.40;;;;;;;28.47;49.59;100043.80;1769913;80;21137;-68
2021/06/17 10:30:02;;;;;;;6.75;3.87;;;;;;;28.49;49.63;100045.70;1766847;80;21546;-66
2021/06/17 10:32:34;;;;;;;4.65;4.20;;;;;;;28.51;49.51;100036.68;1757224;80;21109;-69
2021/06/17 10:35:01;;;;;;;4.58;4.17;;;;;;;28.53;49.65;100049.55;1762747;80;25975;-67
2021/06/17 10:37:35;;;;;;;5.12;4.33;;;;;;;28.56;49.33;100045.70;1729720;82;21101;-67
2021/06/17 10:40:16;;;;;;;4.37;3.65;;;;;;;28.58;49.21;100042.70;1761374;80;21106;-67
2021/06/17 10:42:47;;;;;;;4.30;3.90;;;;;;;28.61;49.36;100040.22;1751609;80;21558;-67
2021/06/17 10:45:40;;;;;;;4.12;3.80;;;;;;;28.67;49.18;100045.67;1743599;80;21031;-64
2021/06/17 10:48:13;;;;;;;4.77;4.00;;;;;;;28.70;49.31;100045.91;1754795;80;22025;-64
2021/06/17 10:50:51;;;;;;;4.47;4.08;;;;;;;28.72;49.20;100039.61;1724289;82;21102;-63
2021/06/17 10:53:40;;;;;;;4.92;4.08;;;;;;;28.73;49.07;100024.85;1765715;80;21140;-65
2021/06/17 10:56:20;;;;;;;4.20;3.85;;;;;;;28.75;49.03;100054.09;1768681;80;21007;-67
2021/06/17 10:58:54;;;;;;;5.00;4.28;;;;;;;28.76;48.83;100041.23;1770307;80;21090;-64
2021/06/17 11:01:41;;;;;;;3.77;3.47;;;;;;;28.74;48.90;100031.97;1767435;79;21057;-67
2021/06/17 11:04:14;;;;;;;4.55;3.70;;;;;;;28.74;48.80;100030.60;1768272;80;21829;-66
2021/06/17 11:07:04;;;;;;;5.17;4.25;;;;;;;28.74;48.73;100033.86;1779961;80;21153;-66
2021/06/17 11:09:47;;;;;;;4.40;3.75;;;;;;;28.74;48.82;100030.60;1764611;79;21076;-66
2021/06/17 11:12:25;;;;;;;4.80;4.03;;;;;;;28.76;48.66;100024.83;1766200;80;21106;-66
2021/06/17 11:14:54;;;;;;;4.00;3.70;;;;;;;28.79;48.76;100023.72;1777111;80;21081;-64
2021/06/17 11:17:33;;;;;;;5.28;3.87;;;;;;;28.83;48.48;100018.50;1777263;79;21089;-65
2021/06/17 11:20:23;;;;;;;4.80;4.05;;;;;;;28.87;48.52;100014.66;1776285;80;21141;-66
2021/06/17 11:22:57;;;;;;;5.55;3.70;;;;;;;28.90;48.35;100016.84;1772204;79;21050;-72
2021/06/17 11:25:22;;;;;;;4.83;4.08;;;;;;;28.90;48.36;100006.71;1769902;80;21303;-70
2021/06/17 11:28:09;;;;;;;4.42;4.03;;;;;;;28.91;48.13;100008.33;1773688;80;21137;-72
2021/06/17 11:30:50;;;;;;;4.37;4.08;;;;;;;28.93;47.97;100005.31;1765975;80;21108;-73
2021/06/17 11:33:24;;;;;;;4.37;4.08;;;;;;;28.94;48.05;100001.50;1772519;79;21110;-69
2021/06/17 11:36:00;;;;;;;5.00;4.12;;;;;;;28.96;47.90;99997.37;1758660;80;21559;-70
2021/06/17 11:38:30;;;;;;;5.37;3.92;;;;;;;28.98;47.77;99991.06;1759101;80;21482;-70
2021/06/17 11:40:58;;;;;;;5.15;4.20;;;;;;;28.99;47.86;99991.87;1777785;79;21022;-70
2021/06/17 11:43:27;;;;;;;5.95;4.25;;;;;;;29.03;47.88;99983.36;1770658;80;21049;-65
2021/06/17 11:45:54;;;;;;;6.00;4.12;;;;;;;29.07;48.10;99987.19;1769741;80;21051;-66
2021/06/17 11:48:21;;;;;;;4.53;4.10;;;;;;;29.12;47.72;99967.17;1769858;80;21564;-71
2021/06/17 11:50:50;;;;;;;5.22;4.00;;;;;;;29.19;46.56;99960.86;1770837;79;21053;-69